Time;durP1;ratioP1;P1;durP2;ratioP2;P2;SDS_P1;SDS_P2;PMS_P1;PMS_P2;Temp;Humidity;BMP_temperature;BMP_pressure;BME280_temperature;BME280_humidity;BME280_pressure;Samples;Min_cycle;Max_cycle;Signal;HPM_P1;HPM_P2
2023/05/23 00:01:57;;;;;;;5.67;5.20;;;18.10;50.40;;;;;;6249062;28;20265;-86
2023/05/23 00:05:02;;;;;;;5.77;5.27;;;18.10;50.30;;;;;;6238702;28;20245;-86
2023/05/23 00:08:07;;;;;;;5.20;4.90;;;18.10;50.20;;;;;;6257528;28;20238;-85
2023/05/23 00:11:10;;;;;;;5.53;5.03;;;18.10;50.60;;;;;;6244543;28;20292;-85
2023/05/23 00:14:13;;;;;;;4.87;4.67;;;18.10;50.50;;;;;;6256284;28;20226;-86
2023/05/23 00:17:17;;;;;;;5.20;5.00;;;18.10;50.70;;;;;;6238667;28;21001;-86
2023/05/23 00:20:20;;;;;;;5.30;4.90;;;18.00;50.80;;;;;;6256527;28;20230;-86
2023/05/23 00:23:28;;;;;;;4.90;4.50;;;18.00;50.80;;;;;;6255051;28;20284;-84
2023/05/23 00:26:32;;;;;;;5.60;5.00;;;18.00;50.70;;;;;;6240767;28;20320;-87
2023/05/23 00:29:38;;;;;;;5.20;4.80;;;18.00;51.00;;;;;;6254765;28;20272;-87
2023/05/23 00:32:49;;;;;;;5.20;4.90;;;18.00;50.90;;;;;;6260657;28;20238;-86
2023/05/23 00:35:54;;;;;;;5.50;5.20;;;17.90;50.90;;;;;;6248078;28;20249;-86
2023/05/23 00:39:01;;;;;;;6.10;5.50;;;17.90;51.00;;;;;;6255896;28;20237;-85
2023/05/23 00:42:06;;;;;;;5.30;4.80;;;17.80;50.80;;;;;;6260377;28;20250;-85
2023/05/23 00:45:11;;;;;;;5.40;5.00;;;17.80;51.00;;;;;;6240628;28;20239;-86
2023/05/23 00:48:14;;;;;;;5.87;5.43;;;17.80;51.20;;;;;;6246418;28;20230;-86
2023/05/23 00:51:18;;;;;;;5.17;4.97;;;17.80;51.30;;;;;;6248946;28;20233;-86
2023/05/23 00:54:26;;;;;;;5.20;4.97;;;17.70;51.50;;;;;;6250987;28;20223;-85
2023/05/23 00:57:29;;;;;;;5.40;5.00;;;17.60;51.40;;;;;;6246257;28;20742;-86
2023/05/23 01:00:34;;;;;;;6.07;5.50;;;17.50;51.50;;;;;;6254782;28;20230;-86
2023/05/23 01:03:37;;;;;;;5.80;5.40;;;17.50;51.60;;;;;;6256338;28;20667;-86
2023/05/23 01:06:45;;;;;;;5.87;5.33;;;17.40;51.60;;;;;;6246208;28;20242;-85
2023/05/23 01:09:50;;;;;;;5.77;5.17;;;17.40;51.80;;;;;;6262150;28;20238;-86
2023/05/23 01:13:09;;;;;;;5.90;5.57;;;17.40;52.00;;;;;;6225549;28;20254;-85
2023/05/23 01:16:18;;;;;;;4.90;4.67;;;17.40;52.00;;;;;;6239297;28;20239;-85
2023/05/23 01:19:49;;;;;;;6.47;6.07;;;17.40;52.00;;;;;;6252222;28;20234;-87
2023/05/23 01:23:10;;;;;;;5.30;5.00;;;17.40;51.90;;;;;;6254945;28;20249;-87
2023/05/23 01:26:33;;;;;;;4.97;4.73;;;17.40;52.10;;;;;;6238696;28;20245;-86
2023/05/23 01:29:43;;;;;;;5.50;5.10;;;17.40;52.20;;;;;;6251227;28;20230;-86
2023/05/23 01:32:48;;;;;;;5.60;5.30;;;17.40;52.30;;;;;;6264635;28;20268;-88
2023/05/23 01:35:51;;;;;;;5.20;5.00;;;17.40;52.10;;;;;;6258326;28;20670;-86
2023/05/23 01:38:54;;;;;;;5.23;4.93;;;17.40;52.30;;;;;;6259225;28;20242;-85
2023/05/23 01:41:58;;;;;;;5.10;4.90;;;17.40;52.20;;;;;;6250604;28;20242;-86
2023/05/23 01:45:03;;;;;;;6.67;6.20;;;17.40;52.20;;;;;;6260346;28;20884;-86
2023/05/23 01:48:06;;;;;;;5.10;4.90;;;17.40;52.20;;;;;;6260524;28;20299;-88
2023/05/23 01:51:09;;;;;;;5.13;4.93;;;17.40;52.20;;;;;;6265628;28;20653;-87
2023/05/23 01:54:15;;;;;;;7.37;5.80;;;17.30;52.20;;;;;;6257325;28;20810;-88
2023/05/23 01:57:20;;;;;;;5.80;5.43;;;17.30;52.30;;;;;;6262342;28;20238;-85
2023/05/23 02:00:25;;;;;;;7.53;5.20;;;17.30;52.20;;;;;;6254703;28;20261;-85
2023/05/23 02:03:39;;;;;;;5.13;4.93;;;17.30;52.20;;;;;;6256920;28;20230;-88
2023/05/23 02:07:04;;;;;;;7.43;5.97;;;17.30;52.40;;;;;;6243864;28;20230;-85
2023/05/23 02:10:09;;;;;;;6.07;5.67;;;17.30;52.50;;;;;;6250870;28;20234;-85
2023/05/23 02:13:12;;;;;;;5.70;5.40;;;17.20;52.60;;;;;;6251113;28;20727;-86
2023/05/23 02:16:17;;;;;;;6.13;5.63;;;17.20;52.50;;;;;;6245491;28;20246;-86
2023/05/23 02:19:20;;;;;;;5.87;5.57;;;17.20;52.30;;;;;;6249624;28;20316;-85
2023/05/23 02:22:24;;;;;;;7.17;6.60;;;17.20;52.30;;;;;;6252040;28;20245;-87
2023/05/23 02:25:28;;;;;;;6.00;5.70;;;17.20;52.60;;;;;;6249961;28;20360;-86
2023/05/23 02:28:31;;;;;;;6.40;5.90;;;17.20;52.60;;;;;;6262399;28;20237;-86
2023/05/23 02:31:36;;;;;;;5.93;5.53;;;17.20;52.60;;;;;;6259924;28;20234;-84
2023/05/23 02:34:40;;;;;;;5.80;5.50;;;17.20;52.60;;;;;;6268269;28;20329;-86
2023/05/23 02:37:43;;;;;;;6.37;5.97;;;17.20;52.80;;;;;;6253889;28;20241;-85
2023/05/23 02:40:46;;;;;;;7.30;6.00;;;17.20;52.80;;;;;;6260843;28;20246;-86
2023/05/23 02:43:50;;;;;;;7.13;5.93;;;17.10;52.90;;;;;;6248059;28;20249;-86
2023/05/23 02:46:56;;;;;;;6.33;5.80;;;17.10;52.90;;;;;;6251525;28;20270;-84
2023/05/23 02:49:59;;;;;;;6.03;5.47;;;17.10;52.90;;;;;;6256569;28;20230;-85
2023/05/23 02:53:02;;;;;;;6.80;6.20;;;17.10;52.80;;;;;;6240957;28;20234;-85
2023/05/23 02:56:07;;;;;;;6.37;5.97;;;17.10;53.10;;;;;;6275631;28;20226;-84
2023/05/23 02:59:11;;;;;;;6.77;6.13;;;17.10;53.30;;;;;;6275003;28;20245;-85
2023/05/23 03:02:24;;;;;;;7.07;6.00;;;17.00;53.10;;;;;;6296057;28;20237;-84
2023/05/23 03:05:28;;;;;;;7.67;6.47;;;17.00;53.20;;;;;;6293677;28;20236;-85
2023/05/23 03:08:31;;;;;;;6.37;5.73;;;17.00;53.10;;;;;;6257372;28;20226;-85
2023/05/23 03:11:34;;;;;;;6.00;5.60;;;17.00;53.20;;;;;;6255113;28;20432;-85
2023/05/23 03:14:38;;;;;;;6.40;5.87;;;17.00;53.30;;;;;;6266967;28;20246;-85
2023/05/23 03:17:43;;;;;;;6.97;6.40;;;17.00;53.30;;;;;;6256551;28;20242;-86
2023/05/23 03:20:46;;;;;;;6.67;6.27;;;17.00;53.40;;;;;;6253928;28;20234;-87
2023/05/23 03:23:50;;;;;;;5.70;5.47;;;17.00;53.20;;;;;;6263567;28;20734;-88
2023/05/23 03:26:53;;;;;;;6.77;6.27;;;17.00;53.30;;;;;;6249866;28;20743;-84
2023/05/23 03:29:56;;;;;;;5.93;5.53;;;17.00;53.50;;;;;;6255694;28;20814;-86
2023/05/23 03:33:02;;;;;;;6.63;6.10;;;17.00;53.50;;;;;;6243979;28;20242;-82
2023/05/23 03:36:06;;;;;;;6.63;6.10;;;17.00;53.90;;;;;;6265537;28;20425;-85
2023/05/23 03:39:09;;;;;;;8.07;6.87;;;17.00;54.40;;;;;;6251067;28;20537;-85
2023/05/23 03:42:12;;;;;;;6.70;6.03;;;17.00;54.40;;;;;;6257862;28;20651;-83
2023/05/23 03:45:17;;;;;;;7.00;6.40;;;17.00;54.60;;;;;;6254365;28;20226;-82
2023/05/23 03:48:22;;;;;;;7.13;6.53;;;17.00;54.50;;;;;;6252944;28;20845;-83
2023/05/23 03:51:26;;;;;;;6.90;6.40;;;16.90;54.60;;;;;;6252710;28;20734;-83
2023/05/23 03:54:31;;;;;;;8.63;6.37;;;16.90;54.50;;;;;;6265577;28;20222;-84
2023/05/23 03:57:35;;;;;;;9.37;6.43;;;16.90;54.40;;;;;;6256351;28;20242;-85
2023/05/23 04:00:38;;;;;;;7.37;6.60;;;16.90;54.40;;;;;;6240746;28;20235;-84
2023/05/23 04:03:43;;;;;;;7.03;6.37;;;16.90;54.30;;;;;;6265569;28;20227;-81
2023/05/23 04:06:46;;;;;;;6.47;6.10;;;16.80;54.30;;;;;;6259917;28;20243;-84
2023/05/23 04:09:49;;;;;;;6.93;6.43;;;16.80;54.30;;;;;;6257230;28;20238;-84
2023/05/23 04:12:53;;;;;;;7.13;6.53;;;16.90;54.30;;;;;;6260144;28;20246;-85
2023/05/23 04:15:56;;;;;;;7.77;6.50;;;16.80;54.30;;;;;;6252431;28;20238;-82
2023/05/23 04:19:01;;;;;;;6.43;6.03;;;16.80;54.40;;;;;;6260075;28;20245;-83
2023/05/23 04:22:07;;;;;;;6.67;6.07;;;16.90;54.30;;;;;;6260791;28;20230;-84
2023/05/23 04:25:11;;;;;;;7.00;6.30;;;16.80;54.60;;;;;;6257309;28;20284;-85
2023/05/23 04:28:16;;;;;;;6.73;6.17;;;16.80;55.00;;;;;;6251209;28;20235;-83
2023/05/23 04:31:21;;;;;;;8.43;6.50;;;16.90;55.00;;;;;;6259039;28;20238;-83
2023/05/23 04:34:25;;;;;;;18.47;7.40;;;16.90;55.00;;;;;;6262497;28;20230;-86
2023/05/23 04:37:31;;;;;;;13.10;7.33;;;16.90;55.30;;;;;;6262862;28;20226;-86
2023/05/23 04:40:35;;;;;;;6.87;6.37;;;16.90;55.20;;;;;;6253510;28;20245;-85
2023/05/23 04:43:41;;;;;;;8.83;6.73;;;16.90;55.20;;;;;;6262224;28;20241;-82
2023/05/23 04:46:44;;;;;;;7.27;6.67;;;16.90;55.40;;;;;;6255883;28;20241;-82
2023/05/23 04:49:49;;;;;;;7.03;6.47;;;16.90;55.50;;;;;;6257245;28;20804;-83
2023/05/23 04:52:52;;;;;;;8.13;6.97;;;16.90;55.20;;;;;;6258706;28;20272;-81
2023/05/23 04:55:56;;;;;;;7.33;6.83;;;16.90;56.30;;;;;;6252735;28;20252;-84
2023/05/23 04:58:59;;;;;;;8.97;6.57;;;16.90;55.70;;;;;;6251037;28;20234;-83
2023/05/23 05:02:02;;;;;;;8.83;7.10;;;16.80;55.70;;;;;;6228063;28;20234;-82
2023/05/23 05:05:07;;;;;;;9.47;6.77;;;16.80;55.60;;;;;;6256918;28;20272;-83
2023/05/23 05:08:13;;;;;;;6.80;6.20;;;16.80;55.80;;;;;;6256453;28;20966;-81
2023/05/23 05:11:16;;;;;;;7.27;6.77;;;16.80;55.80;;;;;;6265017;28;20233;-81
2023/05/23 05:14:19;;;;;;;7.33;6.83;;;16.80;55.80;;;;;;6264052;28;20233;-82
2023/05/23 05:17:22;;;;;;;7.93;7.27;;;16.80;55.80;;;;;;6257908;28;20233;-78
2023/05/23 05:20:27;;;;;;;9.97;7.07;;;16.80;55.80;;;;;;6260580;28;20241;-75
2023/05/23 05:23:32;;;;;;;9.83;7.37;;;16.80;55.70;;;;;;6258259;28;20230;-77
2023/05/23 05:26:35;;;;;;;10.17;6.83;;;16.80;56.00;;;;;;6268366;28;20222;-80
2023/05/23 05:29:38;;;;;;;6.83;6.23;;;16.80;56.00;;;;;;6293943;28;20289;-80
2023/05/23 05:32:45;;;;;;;6.63;6.13;;;16.80;56.00;;;;;;6293177;28;20223;-83
2023/05/23 05:35:50;;;;;;;6.33;5.80;;;16.80;56.00;;;;;;6301416;28;20229;-78
2023/05/23 05:38:53;;;;;;;7.17;6.67;;;16.80;56.00;;;;;;6287337;28;20239;-79
2023/05/23 05:41:56;;;;;;;8.40;7.37;;;16.80;55.90;;;;;;6300115;28;20230;-80
2023/05/23 05:45:00;;;;;;;6.50;6.10;;;16.80;55.90;;;;;;6288556;28;20340;-82
2023/05/23 05:48:03;;;;;;;7.30;6.80;;;16.80;56.00;;;;;;6290594;28;20272;-81
2023/05/23 05:51:08;;;;;;;10.10;6.70;;;16.80;56.10;;;;;;6283462;28;20242;-85
2023/05/23 05:54:11;;;;;;;6.77;6.37;;;16.80;56.10;;;;;;6290044;28;20241;-81
2023/05/23 05:57:14;;;;;;;7.13;6.60;;;16.90;56.20;;;;;;6286406;28;20308;-80
2023/05/23 06:00:18;;;;;;;7.63;6.93;;;17.00;56.10;;;;;;6286816;28;20286;-80
2023/05/23 06:03:22;;;;;;;7.17;6.63;;;17.00;56.40;;;;;;6286892;28;20237;-82
2023/05/23 06:06:27;;;;;;;6.90;6.37;;;17.00;56.20;;;;;;6265386;28;20241;-83
2023/05/23 06:09:30;;;;;;;6.73;6.33;;;17.00;55.90;;;;;;6262610;28;20234;-84
2023/05/23 06:12:33;;;;;;;8.20;7.50;;;17.00;56.10;;;;;;6255295;28;20254;-83
2023/05/23 06:15:36;;;;;;;8.27;7.43;;;17.00;56.10;;;;;;6262553;28;20758;-81
2023/05/23 06:18:39;;;;;;;7.30;6.80;;;17.10;55.90;;;;;;6253024;28;20230;-82
2023/05/23 06:21:44;;;;;;;7.67;6.83;;;17.20;55.80;;;;;;6262040;28;20250;-84
2023/05/23 06:24:48;;;;;;;8.70;7.67;;;17.20;56.00;;;;;;6264882;28;20230;-85
2023/05/23 06:27:53;;;;;;;7.87;7.17;;;17.20;56.30;;;;;;6255689;28;20246;-82
2023/05/23 06:30:56;;;;;;;7.20;6.80;;;17.20;56.20;;;;;;6256915;28;20268;-82
2023/05/23 06:33:59;;;;;;;11.07;7.70;;;17.30;56.10;;;;;;6257357;28;20264;-81
2023/05/23 06:37:04;;;;;;;8.43;7.53;;;17.40;56.40;;;;;;6266892;28;20242;-81
2023/05/23 06:40:08;;;;;;;7.30;6.70;;;17.40;56.10;;;;;;6247578;28;20867;-85
2023/05/23 06:43:11;;;;;;;7.67;7.00;;;17.50;56.70;;;;;;6267217;28;20230;-84
2023/05/23 06:46:14;;;;;;;8.53;7.13;;;17.80;56.40;;;;;;6261296;28;20824;-86
2023/05/23 06:49:17;;;;;;;11.00;7.27;;;18.00;56.40;;;;;;6257443;28;20262;-84
2023/05/23 06:52:22;;;;;;;8.00;7.50;;;18.20;56.30;;;;;;6265006;28;20238;-85
2023/05/23 06:55:25;;;;;;;9.63;6.90;;;18.30;55.10;;;;;;6267082;28;20717;-82
2023/05/23 06:58:28;;;;;;;7.73;7.03;;;18.60;55.00;;;;;;6273566;28;20249;-80
2023/05/23 07:01:31;;;;;;;7.73;7.20;;;18.80;54.00;;;;;;6292438;28;20222;-78
2023/05/23 07:04:35;;;;;;;10.30;7.03;;;19.10;53.10;;;;;;6289281;28;20705;-79
2023/05/23 07:07:39;;;;;;;6.83;6.27;;;19.30;53.10;;;;;;6289069;28;20229;-78
2023/05/23 07:10:42;;;;;;;7.97;7.27;;;19.50;52.50;;;;;;6295896;28;20228;-78
2023/05/23 07:13:46;;;;;;;8.20;6.90;;;19.50;52.20;;;;;;6289641;28;20218;-79
2023/05/23 07:16:49;;;;;;;7.37;6.63;;;19.40;52.60;;;;;;6294581;28;20218;-77
2023/05/23 07:19:52;;;;;;;9.50;7.27;;;19.40;52.30;;;;;;6292099;28;20272;-79
2023/05/23 07:22:57;;;;;;;7.00;6.47;;;19.60;52.20;;;;;;6278849;28;20226;-79
2023/05/23 07:26:00;;;;;;;12.70;7.27;;;19.60;52.60;;;;;;6279613;28;20230;-78
2023/05/23 07:29:05;;;;;;;9.00;7.10;;;19.70;52.40;;;;;;6285225;28;20237;-79
2023/05/23 07:32:09;;;;;;;11.10;6.90;;;19.70;51.90;;;;;;6288198;28;20241;-79
2023/05/23 07:35:12;;;;;;;6.93;6.43;;;19.90;52.40;;;;;;6292422;28;20230;-81
2023/05/23 07:38:16;;;;;;;8.10;6.93;;;20.00;51.60;;;;;;6267693;28;20242;-81
2023/05/23 07:41:19;;;;;;;8.63;7.47;;;20.20;52.20;;;;;;6250843;28;20235;-82
2023/05/23 07:44:23;;;;;;;7.87;7.00;;;20.20;51.90;;;;;;6265925;28;20250;-82
2023/05/23 07:47:27;;;;;;;7.97;7.37;;;20.20;52.40;;;;;;6249084;28;20294;-82
2023/05/23 07:50:30;;;;;;;10.83;7.83;;;20.50;51.10;;;;;;6262613;28;20320;-82
2023/05/23 07:53:38;;;;;;;7.70;6.93;;;20.50;51.60;;;;;;6259208;28;20226;-79
2023/05/23 07:56:43;;;;;;;8.20;7.43;;;20.70;50.70;;;;;;6255282;28;20777;-83
2023/05/23 07:59:46;;;;;;;10.00;6.97;;;20.80;50.60;;;;;;6259703;28;20367;-82
2023/05/23 08:02:49;;;;;;;8.50;6.60;;;20.80;50.70;;;;;;6259655;28;20234;-84
2023/05/23 08:05:53;;;;;;;7.43;6.80;;;20.80;50.80;;;;;;6262200;28;20769;-82
2023/05/23 08:08:57;;;;;;;8.20;6.93;;;20.90;50.20;;;;;;6264385;28;20295;-82
2023/05/23 08:12:00;;;;;;;10.70;7.17;;;20.90;50.20;;;;;;6249076;28;20261;-79
2023/05/23 08:15:04;;;;;;;7.47;6.60;;;21.00;49.90;;;;;;6265749;28;20244;-82
2023/05/23 08:18:07;;;;;;;8.40;6.97;;;20.90;50.10;;;;;;6263259;28;20250;-82
2023/05/23 08:21:10;;;;;;;7.83;7.13;;;20.90;50.10;;;;;;6256141;28;20242;-84
2023/05/23 08:24:15;;;;;;;7.10;6.53;;;21.00;50.40;;;;;;6247972;28;20293;-83
2023/05/23 08:27:18;;;;;;;8.47;7.13;;;21.10;50.30;;;;;;6256909;28;20269;-80
2023/05/23 08:30:21;;;;;;;6.67;6.27;;;21.20;50.70;;;;;;6261087;28;20304;-82
2023/05/23 08:33:25;;;;;;;7.60;6.57;;;21.30;50.70;;;;;;6259767;28;20230;-83
2023/05/23 08:36:28;;;;;;;10.30;7.07;;;21.50;50.50;;;;;;6260391;28;20652;-83
2023/05/23 08:39:32;;;;;;;11.13;7.57;;;21.70;50.70;;;;;;6268914;28;20768;-83
2023/05/23 08:42:36;;;;;;;7.60;7.10;;;21.10;51.50;;;;;;6267198;28;20238;-78
2023/05/23 08:45:39;;;;;;;7.67;6.93;;;21.10;52.50;;;;;;6270623;28;20238;-83
2023/05/23 08:48:44;;;;;;;8.83;7.00;;;21.10;52.10;;;;;;6253713;28;20254;-79
2023/05/23 08:51:47;;;;;;;7.67;6.97;;;21.10;52.30;;;;;;6262609;28;20245;-84
2023/05/23 08:54:52;;;;;;;7.50;6.90;;;21.30;51.90;;;;;;6257355;28;20246;-83
2023/05/23 08:57:56;;;;;;;8.73;7.13;;;21.40;51.90;;;;;;6266636;28;20238;-83
2023/05/23 09:01:00;;;;;;;7.93;7.20;;;21.50;52.10;;;;;;6267869;28;20248;-81
2023/05/23 09:04:05;;;;;;;7.33;6.67;;;21.50;52.50;;;;;;6266195;28;20242;-81
2023/05/23 09:07:11;;;;;;;7.70;6.83;;;21.20;53.20;;;;;;6268376;28;20629;-83
2023/05/23 09:10:16;;;;;;;9.63;7.00;;;21.10;53.50;;;;;;6259647;28;20242;-84
2023/05/23 09:13:21;;;;;;;10.10;6.90;;;21.50;53.70;;;;;;6269096;28;20229;-82
2023/05/23 09:16:24;;;;;;;7.97;7.37;;;21.50;53.70;;;;;;6262787;28;20245;-82
2023/05/23 09:19:27;;;;;;;7.67;6.87;;;21.90;53.00;;;;;;6272193;28;20411;-82
2023/05/23 09:22:31;;;;;;;8.97;7.10;;;22.20;52.50;;;;;;6278689;28;20709;-80
2023/05/23 09:25:45;;;;;;;7.90;7.40;;;22.50;52.40;;;;;;6260783;28;20595;-82
2023/05/23 09:28:48;;;;;;;9.53;7.67;;;22.50;52.30;;;;;;6269224;28;20756;-82
2023/05/23 09:31:52;;;;;;;8.50;7.90;;;22.00;53.60;;;;;;6261237;28;20800;-81
2023/05/23 09:34:59;;;;;;;10.70;8.17;;;21.80;54.70;;;;;;6257508;28;20496;-83
2023/05/23 09:38:02;;;;;;;9.10;8.30;;;22.00;55.20;;;;;;6254647;28;20243;-80
2023/05/23 09:41:07;;;;;;;9.67;8.30;;;22.40;54.70;;;;;;6259627;28;20241;-81
2023/05/23 09:44:13;;;;;;;8.17;7.70;;;22.50;55.00;;;;;;6268451;28;20234;-83
2023/05/23 09:47:16;;;;;;;13.27;8.37;;;22.60;55.10;;;;;;6258483;28;20233;-82
2023/05/23 09:50:21;;;;;;;11.37;8.33;;;22.10;55.50;;;;;;6262755;28;20238;-81
2023/05/23 09:53:27;;;;;;;8.77;7.83;;;21.50;56.30;;;;;;6254087;28;20483;-85
2023/05/23 09:56:33;;;;;;;8.47;7.87;;;21.70;56.70;;;;;;6265448;28;20712;-82
2023/05/23 09:59:40;;;;;;;8.23;7.63;;;21.90;56.30;;;;;;6258466;28;20360;-82
2023/05/23 10:02:55;;;;;;;10.30;8.10;;;22.20;55.90;;;;;;6271267;28;20400;-82
2023/05/23 10:06:04;;;;;;;11.53;8.00;;;21.90;56.20;;;;;;6267543;28;20235;-83
2023/05/23 10:09:11;;;;;;;8.53;7.70;;;21.70;56.50;;;;;;6263967;28;20276;-81
2023/05/23 10:12:42;;;;;;;9.10;7.80;;;22.00;56.70;;;;;;6266417;28;20736;-82
2023/05/23 10:15:46;;;;;;;8.27;7.67;;;22.10;55.70;;;;;;6260177;28;20245;-83
2023/05/23 10:18:56;;;;;;;8.27;7.57;;;22.20;55.90;;;;;;6257664;28;20233;-83
2023/05/23 10:22:01;;;;;;;9.20;7.27;;;22.50;55.10;;;;;;6253292;28;20287;-82
2023/05/23 10:25:07;;;;;;;8.50;7.80;;;22.80;54.60;;;;;;6261473;28;20240;-80
2023/05/23 10:28:14;;;;;;;10.27;9.37;;;23.20;54.10;;;;;;6261939;28;20230;-82
2023/05/23 10:31:18;;;;;;;10.50;9.47;;;23.20;54.10;;;;;;6265901;28;20230;-83
2023/05/23 10:34:30;;;;;;;10.07;9.10;;;22.90;54.90;;;;;;6258243;28;20230;-85
2023/05/23 10:37:37;;;;;;;10.03;9.03;;;22.70;55.40;;;;;;6256717;28;20269;-84
2023/05/23 10:40:50;;;;;;;10.30;9.37;;;22.80;55.60;;;;;;6261074;28;20230;-82
2023/05/23 10:44:02;;;;;;;10.23;9.60;;;22.90;56.50;;;;;;6264770;28;20249;-81
2023/05/23 10:47:06;;;;;;;11.23;10.23;;;23.00;55.90;;;;;;6262439;28;20242;-83
2023/05/23 10:50:15;;;;;;;11.80;10.77;;;23.00;55.80;;;;;;6267009;28;20358;-83
2023/05/23 10:53:19;;;;;;;13.27;12.27;;;23.10;56.00;;;;;;6258980;28;20234;-83
2023/05/23 10:56:23;;;;;;;14.10;12.87;;;22.60;58.00;;;;;;6258298;28;20368;-84
2023/05/23 10:59:28;;;;;;;14.10;12.93;;;21.80;60.10;;;;;;6247308;28;20269;-83
2023/05/23 11:02:32;;;;;;;14.23;12.83;;;21.00;62.20;;;;;;6248833;28;20591;-82
2023/05/23 11:05:37;;;;;;;15.03;13.57;;;20.90;62.50;;;;;;6265277;28;20250;-81
2023/05/23 11:08:44;;;;;;;14.17;12.97;;;20.90;62.90;;;;;;6269553;28;20290;-83
2023/05/23 11:12:37;;;;;;;14.53;13.40;;;21.10;62.20;;;;;;6366277;27;20341;-79
2023/05/23 11:15:44;;;;;;;15.13;14.03;;;21.10;62.30;;;;;;6340814;27;20342;-81
2023/05/23 11:18:47;;;;;;;16.30;14.90;;;20.80;63.20;;;;;;6337775;27;20233;-79
2023/05/23 11:21:53;;;;;;;17.53;15.40;;;20.70;63.60;;;;;;6327922;27;20286;-79
2023/05/23 11:24:57;;;;;;;17.53;16.07;;;20.60;64.00;;;;;;6326859;28;20388;-80
2023/05/23 11:28:04;;;;;;;18.67;17.07;;;20.70;63.50;;;;;;6328025;27;20239;-83
2023/05/23 11:31:08;;;;;;;18.70;17.00;;;20.60;63.20;;;;;;6321363;28;20262;-82
2023/05/23 11:34:12;;;;;;;17.63;16.07;;;20.60;63.20;;;;;;6320433;27;20233;-79
2023/05/23 11:37:16;;;;;;;18.93;16.97;;;20.30;63.60;;;;;;6344101;27;20312;-78
2023/05/23 11:40:30;;;;;;;19.30;17.37;;;20.20;63.70;;;;;;6361647;27;20216;-78
2023/05/23 11:43:35;;;;;;;19.97;18.07;;;20.30;64.10;;;;;;6336709;27;20246;-77
2023/05/23 11:46:38;;;;;;;20.07;18.17;;;20.30;63.70;;;;;;6333305;28;20241;-79
2023/05/23 11:49:44;;;;;;;19.63;18.03;;;20.40;63.40;;;;;;6331890;28;20727;-82
2023/05/23 11:52:50;;;;;;;21.43;19.43;;;20.10;63.90;;;;;;6320730;28;20247;-82
2023/05/23 11:55:57;;;;;;;21.03;19.07;;;20.00;65.00;;;;;;6304467;27;20236;-82
2023/05/23 11:59:01;;;;;;;21.27;19.17;;;19.70;65.00;;;;;;6307882;28;20232;-83
2023/05/23 12:02:06;;;;;;;25.07;21.80;;;19.50;65.50;;;;;;6308314;27;20230;-83
2023/05/23 12:05:10;;;;;;;22.43;20.33;;;19.50;65.50;;;;;;6306927;28;20378;-80
2023/05/23 12:08:14;;;;;;;22.83;20.53;;;19.50;65.40;;;;;;6310539;27;20224;-80
2023/05/23 12:11:18;;;;;;;19.93;18.10;;;19.50;65.40;;;;;;6308408;28;20850;-82
2023/05/23 12:14:22;;;;;;;25.50;21.27;;;19.70;65.30;;;;;;6317517;27;20325;-81
2023/05/23 12:17:26;;;;;;;21.67;19.47;;;19.70;65.00;;;;;;6308899;28;20323;-81
2023/05/23 12:20:38;;;;;;;23.47;19.20;;;19.90;65.20;;;;;;6307723;28;20239;-80
2023/05/23 12:23:42;;;;;;;24.30;19.13;;;20.00;64.60;;;;;;6295158;28;20228;-81
2023/05/23 12:26:54;;;;;;;21.93;19.80;;;20.30;64.20;;;;;;6291642;28;20229;-83
2023/05/23 12:30:10;;;;;;;22.37;20.13;;;20.10;63.60;;;;;;6300687;28;20302;-82
2023/05/23 12:33:18;;;;;;;21.30;19.30;;;19.90;64.00;;;;;;6291149;28;20315;-81
2023/05/23 12:36:25;;;;;;;22.33;20.23;;;19.70;64.20;;;;;;6290456;28;20249;-79
2023/05/23 12:39:28;;;;;;;22.27;19.97;;;19.70;64.50;;;;;;6282803;28;20328;-81
2023/05/23 12:42:44;;;;;;;23.07;20.60;;;19.70;64.30;;;;;;6284873;28;20722;-81
2023/05/23 12:45:49;;;;;;;22.37;20.23;;;19.50;65.00;;;;;;6293660;28;20237;-81
2023/05/23 12:48:53;;;;;;;22.63;20.53;;;19.70;64.70;;;;;;6295695;28;20751;-80
2023/05/23 12:51:56;;;;;;;22.57;20.10;;;19.80;64.20;;;;;;6291411;28;20326;-81
2023/05/23 12:54:59;;;;;;;19.40;17.47;;;20.00;64.00;;;;;;6310468;27;20717;-84
2023/05/23 12:58:02;;;;;;;17.00;15.67;;;20.00;63.70;;;;;;6300453;28;20781;-81
2023/05/23 13:01:07;;;;;;;18.53;16.73;;;20.10;63.50;;;;;;6294061;27;20726;-84
2023/05/23 13:04:10;;;;;;;17.70;16.20;;;20.10;63.10;;;;;;6312076;28;20248;-82
2023/05/23 13:07:15;;;;;;;17.57;16.03;;;20.00;63.50;;;;;;6290907;28;20642;-81
2023/05/23 13:10:20;;;;;;;17.23;15.63;;;20.00;63.70;;;;;;6296791;28;20236;-80
2023/05/23 13:13:27;;;;;;;16.43;15.13;;;20.00;63.30;;;;;;6307855;27;20236;-81
2023/05/23 13:16:31;;;;;;;17.07;15.47;;;20.10;63.00;;;;;;6297230;27;20237;-84
2023/05/23 13:19:36;;;;;;;15.93;14.63;;;20.20;62.80;;;;;;6289050;28;20240;-82
2023/05/23 13:22:40;;;;;;;17.93;16.20;;;20.10;62.80;;;;;;6300535;28;20852;-82
2023/05/23 13:25:43;;;;;;;18.20;16.57;;;20.00;63.30;;;;;;6294006;28;20229;-81
2023/05/23 13:28:47;;;;;;;19.80;17.97;;;19.70;63.90;;;;;;6302550;28;20263;-83
2023/05/23 13:31:52;;;;;;;20.97;18.93;;;19.70;64.00;;;;;;6295726;28;20248;-80
2023/05/23 13:34:55;;;;;;;20.20;18.07;;;19.70;64.10;;;;;;6286113;28;20238;-84
2023/05/23 13:37:58;;;;;;;22.60;19.40;;;19.50;64.50;;;;;;6295022;28;20318;-81
2023/05/23 13:41:02;;;;;;;20.50;18.50;;;19.40;65.00;;;;;;6302874;28;20243;-84
2023/05/23 13:44:05;;;;;;;20.07;18.07;;;19.20;65.40;;;;;;6297027;28;20247;-82
2023/05/23 13:47:15;;;;;;;21.20;18.53;;;18.90;65.60;;;;;;6292237;28;20465;-80
2023/05/23 13:50:20;;;;;;;19.73;17.80;;;18.90;65.90;;;;;;6288182;28;20754;-81
2023/05/23 13:53:23;;;;;;;19.57;17.87;;;18.90;66.10;;;;;;6287790;28;20442;-79
2023/05/23 13:56:26;;;;;;;19.67;17.63;;;18.60;66.70;;;;;;6312442;28;20237;-79
2023/05/23 13:59:30;;;;;;;18.60;16.73;;;18.50;67.00;;;;;;6315793;28;20240;-82
2023/05/23 14:02:34;;;;;;;20.27;17.63;;;18.50;67.10;;;;;;6324274;28;20249;-82
2023/05/23 14:05:38;;;;;;;18.17;16.37;;;18.50;66.90;;;;;;6312006;28;20237;-82
2023/05/23 14:08:41;;;;;;;15.90;14.40;;;18.40;66.80;;;;;;6293800;28;20247;-83
2023/05/23 14:11:44;;;;;;;18.40;16.77;;;18.40;67.10;;;;;;6288158;28;20304;-82
2023/05/23 14:14:47;;;;;;;22.73;19.30;;;18.40;66.90;;;;;;6293654;28;20232;-80
2023/05/23 14:17:54;;;;;;;22.23;19.77;;;18.30;67.00;;;;;;6292883;28;20522;-84
2023/05/23 14:20:57;;;;;;;21.50;19.30;;;18.20;67.10;;;;;;6291434;28;20328;-82
2023/05/23 14:24:00;;;;;;;25.57;20.47;;;18.20;67.40;;;;;;6303477;28;20225;-83
2023/05/23 14:27:03;;;;;;;22.47;19.93;;;18.10;67.90;;;;;;6305241;28;20237;-80
2023/05/23 14:30:08;;;;;;;24.83;20.80;;;18.10;67.90;;;;;;6307475;28;20233;-81
2023/05/23 14:33:13;;;;;;;22.53;20.10;;;18.10;67.80;;;;;;6327643;27;20252;-81
2023/05/23 14:36:17;;;;;;;21.90;19.57;;;18.10;67.90;;;;;;6294354;28;20233;-81
2023/05/23 14:39:20;;;;;;;21.17;18.77;;;18.00;68.20;;;;;;6288090;28;20233;-78
2023/05/23 14:42:23;;;;;;;23.87;20.30;;;18.00;68.30;;;;;;6286469;28;20233;-83
2023/05/23 14:45:26;;;;;;;21.77;19.47;;;17.90;68.80;;;;;;6327443;27;20322;-80
2023/05/23 14:48:31;;;;;;;19.77;17.87;;;17.80;68.70;;;;;;6299899;28;20236;-79
2023/05/23 14:51:36;;;;;;;20.70;18.60;;;17.80;69.00;;;;;;6284904;27;20728;-83
2023/05/23 14:54:52;;;;;;;21.10;18.93;;;17.70;69.00;;;;;;6278539;27;20322;-82
2023/05/23 14:57:57;;;;;;;20.83;18.73;;;17.60;69.60;;;;;;6288120;28;20228;-81
2023/05/23 15:01:01;;;;;;;21.70;18.80;;;17.50;70.00;;;;;;6288063;28;20272;-80
2023/05/23 15:04:07;;;;;;;19.10;17.23;;;17.30;70.50;;;;;;6287072;28;20236;-83
2023/05/23 15:07:12;;;;;;;17.70;16.13;;;17.20;70.60;;;;;;6287117;27;20229;-81
2023/05/23 15:10:16;;;;;;;22.33;13.43;;;17.20;70.50;;;;;;6282968;28;20245;-79
2023/05/23 15:13:19;;;;;;;13.13;11.93;;;17.00;70.10;;;;;;6282619;28;20260;-80
2023/05/23 15:16:22;;;;;;;13.07;10.43;;;16.80;70.30;;;;;;6298387;28;20235;-79
2023/05/23 15:19:26;;;;;;;12.57;10.87;;;16.60;70.40;;;;;;6304347;28;20275;-81
2023/05/23 15:22:30;;;;;;;11.17;9.87;;;16.50;70.40;;;;;;6291088;28;20225;-83
2023/05/23 15:25:41;;;;;;;10.93;10.03;;;16.40;70.50;;;;;;6289802;27;20232;-82
2023/05/23 15:28:47;;;;;;;10.27;9.43;;;16.20;70.70;;;;;;6290333;27;20235;-80
2023/05/23 15:31:50;;;;;;;10.00;9.20;;;16.10;70.30;;;;;;6284763;28;20252;-81
2023/05/23 15:34:55;;;;;;;11.10;8.53;;;16.00;70.70;;;;;;6284340;28;20241;-81
2023/05/23 15:37:58;;;;;;;9.53;8.30;;;16.00;70.20;;;;;;6281719;27;20232;-82
2023/05/23 15:41:02;;;;;;;8.33;7.43;;;15.80;70.00;;;;;;6289508;28;20256;-82
2023/05/23 15:44:05;;;;;;;8.90;8.20;;;15.60;69.80;;;;;;6287257;28;20300;-82
2023/05/23 15:47:09;;;;;;;9.20;8.40;;;15.60;69.70;;;;;;6282812;27;20241;-81
2023/05/23 15:50:14;;;;;;;8.47;7.70;;;15.60;69.50;;;;;;6282128;28;20250;-82
2023/05/23 15:53:17;;;;;;;11.20;8.30;;;15.60;69.40;;;;;;6283744;28;20234;-81
2023/05/23 15:56:20;;;;;;;8.70;8.10;;;15.60;69.50;;;;;;6277837;27;20332;-78